Kezdőlap
METAR-TAF:

METAR-TAF

Repülőterek :

Hall Beach, Nunavut, Kanada

földrajzi szélesség: 68-47N, földrajzi hosszúság: 081-15W, magasság: 8 m

Jelenlegi meteorológiai megfigyelések

A jelentés 1 órával és 14 perccel ezelõtt készült, 00:00 UTC
Észak-északnyugati szél 16 kt
Hőmérséklet -28°C
Páratartalom 75%
Légköri nyomás 1003 hPa
Látótávolság: 16.1 km
Derült ég
Jégtű, alacsony hófúvás

METAR: CYUX 120000Z 33016KT 10SM IC DRSN SKC M28/M31 A2961 RMK LAST STFD OBS/NEXT 121200 UTC SLP030

Idő: 20:14 (01:14 UTC)

Előrejelzés

A jelentés 36 perccel ezelõtt készült, 00:38 UTC
Az előrejelzés 12-én 01 óra UTC és 12-én 13 óra UTC között érvényes
Északnyugati szél 15 kt
Látótávolság: 10 km
Kevés felhő 3000 lábon

TAF: CYUX 120038Z 1201/1213 32015KT P6SM FEW030 RMK NXT FCST BY 120700Z

Meteorológiai megfigyelések és előrejelzések több, mint 4000 repülőtéren (METAR és TAF jelentéseket).

A térképen piros és sárga pontok jelzik az elérhető meteorológiai állomásokat.

Mozgassa az egeret a pont fölött, hogy megjelenjen az állomás neve.

Azután kattintson az időjárási megfigyelések és előrejelzések megtekintéséhez.

A térkép megváltoztatása: kattintson a fekete keresztel jelölt zöld gombra ráközelítéshez, a vonallal jelölt zöld gombra távolításhoz, vagy a zöld nyilakra a szomszédos térképek eléréséhez.


METAR-TAF: